Terminal Aerodrome Forecast
Issued by NWS

Home | Current Version | Previous Version | Graphics & Text | Print | Product List | Glossary On
Versions: 1 2 3 4 5 6 7 8 9 10 11 12 13
782
FTUS43 KIWX 301721
TAFSBN
TAF
KSBN 301721Z 3018/0118 03042KT P6SM SCT007 OVC012
      TEMPO 3018/3020 5SM -DZ BR OVC007
     FM010100 06010KT P6SM OVC008
     FM010700 06007KT 4SM BR VCSH OVC005
     FM011200 10004KT 3SM BR OVC003
     FM011500 14005KT P6SM SCT005 OVC035=

USA.gov is the U.S. government's official web portal to all federal, state and local government web resources and services.